Time;durP1;ratioP1;P1;durP2;ratioP2;P2;SDS_P1;SDS_P2;PMS_P1;PMS_P2;Temp;Humidity;BMP_temperature;BMP_pressure;BME280_temperature;BME280_humidity;BME280_pressure;Samples;Min_cycle;Max_cycle;Signal;HPM_P1;HPM_P2
2022/01/06 00:01:49;;;;;;;46.78;18.50;;;7.80;65.10;;;;;;6086157;23;20009;-90
2022/01/06 00:04:15;;;;;;;24.88;10.48;;;7.80;65.10;;;;;;6061405;23;20081;-89
2022/01/06 00:06:42;;;;;;;21.15;7.32;;;8.20;65.40;;;;;;6081128;23;20006;-89
2022/01/06 00:09:10;;;;;;;28.25;12.93;;;8.10;65.30;;;;;;6082214;23;20022;-90
2022/01/06 00:11:36;;;;;;;31.85;13.90;;;7.80;65.10;;;;;;6084970;23;20508;-89
2022/01/06 00:14:13;;;;;;;34.80;15.98;;;7.80;65.10;;;;;;6083008;23;20033;-89
2022/01/06 00:24:19;;;;;;;22.33;9.60;;;8.20;65.00;;;;;;6087810;23;20048;-90
2022/01/06 00:26:45;;;;;;;15.20;7.13;;;7.80;64.80;;;;;;6080904;23;20104;-89
2022/01/06 00:29:11;;;;;;;13.65;5.97;;;8.00;64.90;;;;;;6055328;23;20022;-89
2022/01/06 00:31:37;;;;;;;20.35;7.88;;;8.10;65.00;;;;;;6057765;23;20021;-89
2022/01/06 00:34:05;;;;;;;22.10;10.52;;;7.70;64.80;;;;;;6082042;23;20006;-90
2022/01/06 00:36:30;;;;;;;24.58;11.43;;;7.90;65.00;;;;;;6081269;23;20504;-89
2022/01/06 00:38:57;;;;;;;26.50;12.48;;;7.80;64.90;;;;;;6081082;23;20014;-90
2022/01/06 00:41:23;;;;;;;22.33;9.80;;;7.70;64.90;;;;;;6081561;23;20006;-89
2022/01/06 00:43:49;;;;;;;18.38;8.95;;;7.80;64.80;;;;;;6061218;23;20010;-90
2022/01/06 00:46:14;;;;;;;24.70;11.63;;;8.20;65.60;;;;;;6056854;23;20041;-89
2022/01/06 00:48:40;;;;;;;22.27;9.15;;;8.20;65.00;;;;;;6080073;23;20025;-89
2022/01/06 00:51:08;;;;;;;23.92;9.25;;;8.30;65.10;;;;;;6081988;23;20045;-90
2022/01/06 00:53:34;;;;;;;12.75;4.05;;;7.70;64.70;;;;;;6060126;23;20368;-89
2022/01/06 00:56:00;;;;;;;7.13;2.58;;;7.70;64.70;;;;;;6060688;23;20369;-89
2022/01/06 00:58:26;;;;;;;6.70;2.78;;;7.70;65.40;;;;;;6057776;23;20005;-89
2022/01/06 01:00:52;;;;;;;7.88;3.78;;;7.70;64.80;;;;;;6082500;23;20026;-89
2022/01/06 01:03:21;;;;;;;12.15;4.53;;;7.70;64.90;;;;;;6059721;23;20419;-89
2022/01/06 01:05:50;;;;;;;16.55;8.60;;;7.70;64.80;;;;;;6055767;23;20010;-89
2022/01/06 01:08:17;;;;;;;22.23;9.15;;;7.60;64.80;;;;;;6057894;23;20104;-89
2022/01/06 01:10:44;;;;;;;21.70;10.32;;;7.90;65.00;;;;;;6107688;23;20296;-90
2022/01/06 01:13:12;;;;;;;19.40;9.65;;;7.60;64.70;;;;;;6082003;23;20041;-89
2022/01/06 01:15:50;;;;;;;22.02;9.85;;;7.60;64.60;;;;;;6057675;23;20018;-89
2022/01/06 01:18:20;;;;;;;23.17;9.63;;;7.60;64.50;;;;;;6060558;23;20331;-89
2022/01/06 01:20:53;;;;;;;19.58;8.90;;;7.60;64.60;;;;;;6059414;23;20512;-89
2022/01/06 01:23:23;;;;;;;16.95;7.00;;;7.60;64.40;;;;;;6079642;23;20042;-89
2022/01/06 01:25:49;;;;;;;20.63;7.88;;;7.60;64.40;;;;;;6059103;23;20014;-89
2022/01/06 01:28:16;;;;;;;16.77;6.90;;;7.80;64.60;;;;;;6057397;23;20456;-89
2022/01/06 01:31:11;;;;;;;14.60;5.30;;;7.60;64.50;;;;;;6082260;23;20042;-90
2022/01/06 01:33:38;;;;;;;18.27;6.82;;;7.90;64.70;;;;;;6068523;23;20114;-89
2022/01/06 01:36:04;;;;;;;26.27;12.23;;;7.50;64.60;;;;;;6056208;23;20084;-89
2022/01/06 01:38:30;;;;;;;30.15;13.88;;;7.50;64.60;;;;;;6084503;23;20010;-90
2022/01/06 01:40:56;;;;;;;30.05;11.88;;;8.10;64.90;;;;;;6059886;23;20013;-90
2022/01/06 01:43:22;;;;;;;24.25;12.68;;;7.50;64.40;;;;;;6083445;23;20476;-90
2022/01/06 01:45:55;;;;;;;28.25;10.77;;;7.50;64.50;;;;;;6058817;23;20049;-89
2022/01/06 01:48:27;;;;;;;26.02;10.32;;;7.70;64.50;;;;;;6083547;23;20009;-89
2022/01/06 01:50:52;;;;;;;27.70;10.73;;;7.50;64.40;;;;;;6058068;23;20025;-89
2022/01/06 01:53:18;;;;;;;38.55;15.75;;;8.00;64.70;;;;;;6058820;23;20025;-89
2022/01/06 01:55:44;;;;;;;47.40;20.80;;;7.50;64.40;;;;;;6061028;23;20458;-89
2022/01/06 01:58:11;;;;;;;36.67;15.65;;;7.40;64.40;;;;;;6082581;23;20002;-90
2022/01/06 02:00:40;;;;;;;32.45;13.88;;;7.40;64.40;;;;;;6083021;23;20024;-89
2022/01/06 02:03:06;;;;;;;22.60;9.05;;;7.40;64.50;;;;;;6060904;23;20044;-89
2022/01/06 02:05:32;;;;;;;21.67;8.15;;;7.30;64.70;;;;;;6062787;23;20024;-89
2022/01/06 02:07:59;;;;;;;22.25;9.57;;;7.40;64.60;;;;;;6056233;23;20121;-89
2022/01/06 02:10:27;;;;;;;19.52;8.73;;;7.40;64.50;;;;;;6057494;23;20050;-89
2022/01/06 02:12:55;;;;;;;21.20;9.32;;;7.80;64.80;;;;;;6082687;23;20053;-89
2022/01/06 02:15:21;;;;;;;20.38;8.82;;;7.50;64.70;;;;;;6106662;23;20013;-89
2022/01/06 02:17:48;;;;;;;25.50;8.85;;;7.30;64.60;;;;;;6057641;23;20096;-89
2022/01/06 02:20:18;;;;;;;22.02;9.20;;;7.30;64.70;;;;;;6084649;23;20021;-89
2022/01/06 02:22:44;;;;;;;22.55;10.45;;;7.60;64.80;;;;;;6085226;23;20445;-89
2022/01/06 02:25:21;;;;;;;24.33;10.35;;;7.80;65.00;;;;;;6084433;23;20013;-90
2022/01/06 02:27:51;;;;;;;27.08;11.18;;;7.30;64.60;;;;;;6081439;23;20040;-89
2022/01/06 02:30:19;;;;;;;22.50;9.93;;;7.20;64.60;;;;;;6057985;23;20151;-89
2022/01/06 02:32:44;;;;;;;21.23;8.45;;;7.70;64.90;;;;;;6059191;23;20096;-89
2022/01/06 02:35:15;;;;;;;18.05;8.32;;;7.50;64.90;;;;;;6056806;23;20376;-89
2022/01/06 02:37:41;;;;;;;23.63;9.73;;;7.70;65.00;;;;;;6059402;23;20017;-90
2022/01/06 02:40:17;;;;;;;25.35;10.52;;;7.20;64.70;;;;;;6059912;23;20022;-89
2022/01/06 02:42:47;;;;;;;25.15;9.65;;;7.20;64.90;;;;;;6084967;23;20420;-89
2022/01/06 02:45:14;;;;;;;26.95;10.68;;;7.50;64.80;;;;;;6059768;23;20026;-89
2022/01/06 02:47:41;;;;;;;20.27;7.63;;;7.20;64.70;;;;;;6057398;23;20014;-89
2022/01/06 02:50:08;;;;;;;25.92;8.50;;;7.20;64.70;;;;;;6081727;23;20401;-89
2022/01/06 02:52:34;;;;;;;22.08;8.38;;;7.20;64.60;;;;;;6059833;23;20022;-89
2022/01/06 02:55:00;;;;;;;32.05;10.15;;;7.20;64.60;;;;;;6081547;23;20037;-89
2022/01/06 02:57:25;;;;;;;27.45;11.40;;;7.40;64.70;;;;;;6083135;23;20045;-89
2022/01/06 02:59:51;;;;;;;31.85;12.40;;;7.70;64.90;;;;;;6080936;23;20061;-89
2022/01/06 03:02:17;;;;;;;29.27;11.13;;;7.20;64.60;;;;;;6056599;23;20044;-89
2022/01/06 03:04:43;;;;;;;18.63;8.07;;;7.10;64.60;;;;;;6085305;23;20018;-88
2022/01/06 03:07:08;;;;;;;20.63;7.13;;;7.10;64.60;;;;;;6061660;23;20341;-89
2022/01/06 03:09:40;;;;;;;19.40;7.35;;;7.10;64.60;;;;;;6058397;23;20010;-89
2022/01/06 03:12:18;;;;;;;14.77;5.28;;;7.10;64.50;;;;;;6059974;23;20002;-89
2022/01/06 03:14:44;;;;;;;15.70;6.38;;;7.10;64.50;;;;;;6083031;23;20093;-89
2022/01/06 03:17:10;;;;;;;15.48;6.63;;;7.60;64.80;;;;;;6059606;23;20415;-90
2022/01/06 03:19:36;;;;;;;18.38;8.68;;;7.10;64.50;;;;;;6056206;23;20017;-89
2022/01/06 03:22:02;;;;;;;20.27;8.52;;;7.10;64.50;;;;;;6081573;23;20473;-89
2022/01/06 03:24:27;;;;;;;17.92;7.90;;;7.10;64.50;;;;;;6056950;23;20009;-88
2022/01/06 03:26:53;;;;;;;20.27;8.50;;;7.70;64.70;;;;;;6061325;23;20010;-89
2022/01/06 03:29:19;;;;;;;23.38;10.70;;;7.10;64.20;;;;;;6060217;23;20010;-89
2022/01/06 03:31:45;;;;;;;24.35;9.93;;;7.10;64.00;;;;;;6081534;23;20378;-89
2022/01/06 03:34:11;;;;;;;20.17;8.10;;;7.10;63.90;;;;;;6057217;23;20009;-89
2022/01/06 03:36:37;;;;;;;16.85;7.80;;;7.00;63.70;;;;;;6082227;23;20014;-89
2022/01/06 03:39:04;;;;;;;18.80;8.18;;;7.60;64.10;;;;;;6057364;23;20060;-89
2022/01/06 03:41:30;;;;;;;16.63;6.03;;;7.60;64.10;;;;;;6084363;23;20089;-89
2022/01/06 03:43:55;;;;;;;17.02;7.70;;;7.00;63.90;;;;;;6058109;23;20475;-89
2022/01/06 03:46:21;;;;;;;19.88;9.05;;;7.60;64.20;;;;;;6058305;23;20014;-89
2022/01/06 03:48:47;;;;;;;14.57;6.20;;;7.60;64.30;;;;;;6080290;23;20017;-89
2022/01/06 03:51:13;;;;;;;11.82;5.75;;;7.40;64.20;;;;;;6056235;23;20014;-90
2022/01/06 03:53:39;;;;;;;17.38;10.20;;;7.00;64.60;;;;;;6084280;23;20098;-89
2022/01/06 03:56:05;;;;;;;17.60;8.07;;;6.90;64.00;;;;;;6081724;23;20006;-89
2022/01/06 03:58:30;;;;;;;12.20;5.15;;;7.00;64.30;;;;;;6081606;23;20326;-89
2022/01/06 04:00:56;;;;;;;12.52;6.15;;;7.20;64.30;;;;;;6080450;23;20048;-89
2022/01/06 04:03:22;;;;;;;16.15;7.32;;;6.90;64.20;;;;;;6055611;23;20010;-89
2022/01/06 04:05:48;;;;;;;18.52;7.65;;;7.40;64.50;;;;;;6057747;23;20018;-89
2022/01/06 04:08:13;;;;;;;17.20;7.13;;;6.80;64.20;;;;;;6056573;23;20006;-89
2022/01/06 04:10:39;;;;;;;20.77;7.70;;;6.80;64.30;;;;;;6055175;23;20022;-89
2022/01/06 04:13:05;;;;;;;18.85;7.50;;;6.80;64.20;;;;;;6057632;23;20010;-89
2022/01/06 04:15:31;;;;;;;18.25;7.13;;;6.80;64.30;;;;;;6083603;23;20014;-89
2022/01/06 04:17:57;;;;;;;16.20;7.07;;;6.80;64.20;;;;;;6057904;23;20284;-89
2022/01/06 04:20:23;;;;;;;19.83;7.90;;;6.80;64.20;;;;;;6082534;23;20041;-89
2022/01/06 04:22:48;;;;;;;19.77;7.55;;;6.80;64.20;;;;;;6058275;23;20036;-89
2022/01/06 04:25:14;;;;;;;19.95;7.80;;;6.80;64.20;;;;;;6081183;23;20464;-90
2022/01/06 04:27:40;;;;;;;16.52;6.85;;;6.80;64.20;;;;;;6056977;23;20010;-89
2022/01/06 04:30:08;;;;;;;20.83;8.18;;;6.80;64.10;;;;;;6056078;23;20303;-90
2022/01/06 04:32:35;;;;;;;16.73;7.38;;;6.80;64.20;;;;;;6054303;23;20006;-89
2022/01/06 04:35:01;;;;;;;14.63;6.25;;;6.70;64.10;;;;;;6079950;23;20018;-89
2022/01/06 04:37:28;;;;;;;17.58;7.10;;;6.70;64.10;;;;;;6056573;23;20037;-89
2022/01/06 04:39:54;;;;;;;19.65;7.30;;;6.70;64.10;;;;;;6055406;23;20030;-90
2022/01/06 04:42:19;;;;;;;17.10;5.82;;;6.70;64.20;;;;;;6080162;23;20020;-89
2022/01/06 04:44:45;;;;;;;14.70;6.00;;;6.70;64.20;;;;;;6057631;23;20010;-89
2022/01/06 04:47:11;;;;;;;12.85;6.38;;;6.70;64.20;;;;;;6058798;23;20006;-89
2022/01/06 04:49:36;;;;;;;16.13;6.60;;;6.70;64.20;;;;;;6080606;23;20025;-89
2022/01/06 04:52:03;;;;;;;14.98;6.18;;;7.20;64.40;;;;;;6055805;23;20446;-89
2022/01/06 04:54:29;;;;;;;13.50;5.95;;;6.70;64.20;;;;;;6082157;23;20006;-89
2022/01/06 04:56:54;;;;;;;16.00;7.20;;;6.60;64.20;;;;;;6056819;23;20014;-89
2022/01/06 04:59:20;;;;;;;15.23;5.75;;;6.60;64.20;;;;;;6056201;23;20473;-88
2022/01/06 05:01:46;;;;;;;12.07;6.05;;;6.60;64.20;;;;;;6055697;23;20047;-88
2022/01/06 05:04:12;;;;;;;14.82;5.45;;;6.60;64.20;;;;;;6057117;23;20980;-89
2022/01/06 05:06:37;;;;;;;14.50;4.65;;;6.60;64.20;;;;;;6078432;23;20017;-89
2022/01/06 05:09:03;;;;;;;13.63;5.20;;;7.20;64.50;;;;;;6079470;23;20014;-89
2022/01/06 05:11:29;;;;;;;14.23;4.43;;;7.00;64.40;;;;;;6080351;23;20122;-89
2022/01/06 05:13:55;;;;;;;9.82;3.58;;;6.90;64.40;;;;;;6056929;23;20009;-89
2022/01/06 05:16:21;;;;;;;10.05;3.38;;;6.60;64.30;;;;;;6054799;23;20655;-89
2022/01/06 05:18:47;;;;;;;10.70;3.65;;;6.60;64.20;;;;;;6079133;23;20010;-89
2022/01/06 05:21:13;;;;;;;10.85;4.05;;;6.60;64.20;;;;;;6054333;23;20111;-89
2022/01/06 05:23:40;;;;;;;8.70;3.78;;;6.50;64.20;;;;;;6057562;23;20295;-89
2022/01/06 05:26:06;;;;;;;10.20;3.90;;;7.10;64.60;;;;;;6081020;23;20080;-89
2022/01/06 05:28:32;;;;;;;7.65;3.83;;;6.50;64.20;;;;;;6082228;23;20111;-89
2022/01/06 05:30:58;;;;;;;12.90;4.38;;;7.00;64.50;;;;;;6062034;23;20030;-89
2022/01/06 05:33:24;;;;;;;9.00;3.30;;;7.00;64.50;;;;;;6061788;23;20013;-89
2022/01/06 05:35:50;;;;;;;7.63;4.20;;;6.70;64.30;;;;;;6062393;23;20093;-89
2022/01/06 05:38:16;;;;;;;12.95;3.88;;;6.50;64.30;;;;;;6061593;23;20010;-89
2022/01/06 05:40:42;;;;;;;11.65;4.07;;;6.40;64.20;;;;;;6083310;23;20010;-89
2022/01/06 05:43:08;;;;;;;8.05;4.25;;;6.50;64.40;;;;;;6085563;23;20009;-89
2022/01/06 05:45:34;;;;;;;36.65;12.75;;;6.50;64.40;;;;;;6084511;23;20014;-89
2022/01/06 05:47:59;;;;;;;29.63;12.00;;;6.50;64.50;;;;;;6061289;23;20006;-90
2022/01/06 05:50:27;;;;;;;13.23;6.22;;;6.40;64.30;;;;;;6085512;23;20074;-88
2022/01/06 05:52:54;;;;;;;16.08;6.13;;;7.00;64.70;;;;;;6062832;23;20311;-89
2022/01/06 05:55:21;;;;;;;19.52;6.82;;;7.00;64.60;;;;;;6064026;23;20014;-89
2022/01/06 05:57:48;;;;;;;23.73;9.57;;;6.50;64.40;;;;;;6084979;23;20006;-89
2022/01/06 06:00:14;;;;;;;36.10;13.90;;;6.40;64.30;;;;;;6061034;23;20066;-89
2022/01/06 06:02:40;;;;;;;39.03;15.13;;;6.40;64.30;;;;;;6085787;23;20462;-89
2022/01/06 06:05:06;;;;;;;32.08;11.35;;;6.40;64.30;;;;;;6086948;23;20010;-89
2022/01/06 06:07:32;;;;;;;27.60;10.82;;;6.30;64.40;;;;;;6063605;23;19998;-89
2022/01/06 06:09:57;;;;;;;25.08;9.98;;;6.40;64.30;;;;;;6085499;23;20052;-90
2022/01/06 06:12:23;;;;;;;24.55;9.70;;;6.40;64.30;;;;;;6063362;23;20002;-89
2022/01/06 06:14:49;;;;;;;17.90;7.82;;;6.40;64.30;;;;;;6086609;23;20106;-89
2022/01/06 06:17:15;;;;;;;16.70;6.72;;;6.30;64.20;;;;;;6061650;23;20020;-89
2022/01/06 06:19:40;;;;;;;15.57;5.25;;;6.40;64.30;;;;;;6061929;23;20044;-90
2022/01/06 06:22:06;;;;;;;22.35;10.10;;;6.40;64.20;;;;;;6085515;23;20076;-90
2022/01/06 06:24:33;;;;;;;17.30;8.20;;;6.40;64.30;;;;;;6087321;23;20010;-90
2022/01/06 06:26:59;;;;;;;19.73;9.18;;;6.40;64.30;;;;;;6061927;23;20018;-91
2022/01/06 06:29:25;;;;;;;26.52;11.02;;;6.40;64.20;;;;;;6086314;23;20072;-90
2022/01/06 06:31:51;;;;;;;143.88;56.55;;;6.40;64.30;;;;;;6083616;23;20014;-91
2022/01/06 06:34:16;;;;;;;25.45;11.65;;;6.40;64.30;;;;;;6064309;23;20036;-91
2022/01/06 06:36:42;;;;;;;31.92;12.13;;;6.80;64.60;;;;;;6057967;23;20018;-91
2022/01/06 06:39:08;;;;;;;21.40;10.13;;;6.40;64.30;;;;;;6085250;23;20141;-91
2022/01/06 06:41:34;;;;;;;21.17;9.35;;;6.50;64.30;;;;;;6084676;23;20014;-93
2022/01/06 06:44:00;;;;;;;19.50;8.55;;;6.40;64.20;;;;;;6085526;23;20350;-92
2022/01/06 06:46:26;;;;;;;43.47;14.18;;;7.00;64.40;;;;;;6060327;23;20014;-92
2022/01/06 06:48:52;;;;;;;27.25;9.93;;;6.40;64.00;;;;;;6061574;23;20002;-92
2022/01/06 06:51:17;;;;;;;21.83;8.90;;;7.00;64.90;;;;;;6084305;23;20527;-92
2022/01/06 06:53:44;;;;;;;17.08;7.95;;;7.00;65.00;;;;;;6087319;23;20021;-93
2022/01/06 06:56:09;;;;;;;17.70;6.72;;;6.40;64.10;;;;;;6057879;23;20361;-93
2022/01/06 06:58:35;;;;;;;15.40;6.22;;;6.40;64.10;;;;;;6057789;23;20010;-91
2022/01/06 07:01:01;;;;;;;13.93;5.85;;;6.40;64.10;;;;;;6086095;23;20088;-90
2022/01/06 07:03:27;;;;;;;7.15;4.00;;;6.70;64.40;;;;;;6083869;23;20020;-90
2022/01/06 07:05:52;;;;;;;13.45;3.83;;;6.80;64.40;;;;;;6059980;23;20037;-92
2022/01/06 07:08:18;;;;;;;36.65;12.23;;;6.40;64.30;;;;;;6059319;23;20006;-91
2022/01/06 07:10:44;;;;;;;42.97;15.65;;;6.40;64.30;;;;;;6059111;23;20088;-91
2022/01/06 07:13:10;;;;;;;46.22;17.02;;;6.40;64.70;;;;;;6083457;23;20020;-91
2022/01/06 07:15:41;;;;;;;49.58;16.98;;;6.40;64.10;;;;;;6084935;23;20241;-91
2022/01/06 07:18:07;;;;;;;55.55;19.80;;;6.40;64.10;;;;;;6086609;23;20065;-91
2022/01/06 07:20:33;;;;;;;49.17;18.25;;;6.40;64.00;;;;;;6084189;23;20040;-91
2022/01/06 07:22:59;;;;;;;33.78;14.30;;;6.80;64.20;;;;;;6060693;23;20430;-90
2022/01/06 07:25:25;;;;;;;29.13;13.45;;;6.40;64.00;;;;;;6061327;23;20034;-91
2022/01/06 07:27:51;;;;;;;36.35;12.88;;;6.40;63.90;;;;;;6061372;23;20002;-91
2022/01/06 07:30:16;;;;;;;24.70;11.52;;;6.40;63.90;;;;;;6083714;23;20010;-91
2022/01/06 07:32:48;;;;;;;29.10;12.45;;;6.40;63.90;;;;;;6080438;23;20103;-90
2022/01/06 07:35:16;;;;;;;35.55;12.63;;;6.40;64.30;;;;;;6081923;23;20030;-91
2022/01/06 07:37:42;;;;;;;26.67;11.57;;;6.40;63.80;;;;;;6061974;23;20006;-91
2022/01/06 07:40:09;;;;;;;29.85;11.20;;;6.30;63.80;;;;;;6059468;23;20064;-93
2022/01/06 07:42:35;;;;;;;24.55;10.88;;;6.40;63.80;;;;;;6084744;23;20029;-90
2022/01/06 07:45:01;;;;;;;28.30;10.82;;;6.30;63.80;;;;;;6084267;23;20576;-91
2022/01/06 07:47:32;;;;;;;26.98;10.63;;;6.30;63.80;;;;;;6059343;23;20045;-90
2022/01/06 07:49:59;;;;;;;26.83;10.73;;;6.30;63.90;;;;;;6086195;23;20013;-91
2022/01/06 07:52:27;;;;;;;19.25;8.90;;;6.80;64.10;;;;;;6081945;23;20062;-90
2022/01/06 07:54:53;;;;;;;20.60;9.05;;;6.30;63.90;;;;;;6059517;23;20472;-90
2022/01/06 07:57:20;;;;;;;19.45;8.85;;;6.30;64.00;;;;;;6083764;23;20018;-90
2022/01/06 07:59:46;;;;;;;25.27;10.30;;;6.20;63.90;;;;;;6084400;23;20020;-91
2022/01/06 08:02:11;;;;;;;23.23;8.75;;;6.20;64.00;;;;;;6082296;23;20018;-90
2022/01/06 08:04:37;;;;;;;19.00;8.82;;;6.60;64.20;;;;;;6085330;23;20017;-90
2022/01/06 08:07:03;;;;;;;19.23;8.98;;;6.60;64.20;;;;;;6084910;23;20028;-90
2022/01/06 08:09:29;;;;;;;18.73;8.75;;;6.20;64.00;;;;;;6083423;23;20053;-90
2022/01/06 08:11:55;;;;;;;28.27;11.10;;;6.20;64.00;;;;;;6060773;23;20018;-91
2022/01/06 08:14:21;;;;;;;20.60;9.63;;;6.20;64.10;;;;;;6085663;23;20029;-91
2022/01/06 08:16:46;;;;;;;24.67;12.15;;;6.70;64.30;;;;;;6060532;23;20465;-91
2022/01/06 08:19:12;;;;;;;21.60;9.38;;;6.20;64.00;;;;;;6060528;23;20433;-91
2022/01/06 08:21:38;;;;;;;22.83;10.48;;;6.20;64.10;;;;;;6060880;23;20155;-90
2022/01/06 08:24:05;;;;;;;20.80;9.70;;;6.20;64.20;;;;;;6083236;23;20013;-91
2022/01/06 08:26:33;;;;;;;29.98;11.82;;;6.30;64.30;;;;;;6082424;23;20074;-91
2022/01/06 08:28:59;;;;;;;25.20;10.27;;;6.50;64.40;;;;;;6060103;23;20013;-91
2022/01/06 08:31:25;;;;;;;42.30;18.63;;;6.20;64.20;;;;;;6084308;23;20014;-91
2022/01/06 08:33:51;;;;;;;22.15;10.80;;;6.30;64.20;;;;;;6057787;23;20029;-91
2022/01/06 08:36:16;;;;;;;26.33;11.80;;;6.30;64.70;;;;;;6083586;23;20532;-91
2022/01/06 08:38:42;;;;;;;31.40;13.75;;;6.30;64.10;;;;;;6058660;23;20130;-90
2022/01/06 08:41:08;;;;;;;39.88;17.63;;;6.30;63.90;;;;;;6083955;23;20032;-91
2022/01/06 08:43:35;;;;;;;37.78;17.25;;;6.30;63.90;;;;;;6060586;23;20446;-91
2022/01/06 08:46:01;;;;;;;46.10;19.83;;;6.30;64.40;;;;;;6082204;23;20442;-91
2022/01/06 08:48:27;;;;;;;18.52;9.38;;;6.30;63.90;;;;;;6084787;23;20010;-91
2022/01/06 08:50:53;;;;;;;46.38;18.13;;;6.30;64.00;;;;;;6060255;23;20049;-91
2022/01/06 08:53:21;;;;;;;38.95;17.75;;;6.40;64.10;;;;;;6059257;23;20022;-91
2022/01/06 08:55:47;;;;;;;20.73;9.30;;;6.40;64.80;;;;;;6062489;23;20331;-91
2022/01/06 08:58:14;;;;;;;17.58;6.80;;;6.40;64.30;;;;;;6095820;23;20017;-90
2022/01/06 09:00:40;;;;;;;14.85;7.30;;;6.40;64.40;;;;;;6104274;23;20006;-90
2022/01/06 09:03:07;;;;;;;27.80;10.27;;;6.80;64.70;;;;;;6074990;23;20002;-91
2022/01/06 09:05:33;;;;;;;15.57;8.18;;;6.50;64.70;;;;;;6096805;23;20088;-91
2022/01/06 09:08:00;;;;;;;14.43;6.72;;;6.50;64.80;;;;;;6086199;23;20408;-91
2022/01/06 09:10:31;;;;;;;14.80;5.40;;;6.70;65.00;;;;;;6082626;23;20044;-91
2022/01/06 09:12:58;;;;;;;16.73;5.50;;;6.50;64.90;;;;;;6032961;23;20451;-90
2022/01/06 09:15:26;;;;;;;14.52;6.25;;;6.50;65.00;;;;;;6056470;23;20006;-90
2022/01/06 09:17:52;;;;;;;12.23;4.78;;;6.60;65.20;;;;;;6104108;23;20609;-91
2022/01/06 09:20:18;;;;;;;11.38;4.90;;;6.60;65.20;;;;;;6055683;23;20010;-91
2022/01/06 09:22:44;;;;;;;13.30;4.50;;;6.60;65.30;;;;;;6077977;23;20041;-92
2022/01/06 09:25:13;;;;;;;10.07;4.80;;;7.20;65.80;;;;;;6055063;23;20010;-91
2022/01/06 09:27:39;;;;;;;14.52;4.80;;;6.60;65.50;;;;;;6080934;23;20024;-91
2022/01/06 09:30:07;;;;;;;12.77;5.13;;;6.60;65.60;;;;;;6110519;23;20014;-90
2022/01/06 09:32:34;;;;;;;27.23;10.27;;;6.70;65.70;;;;;;6083545;23;20022;-91
2022/01/06 09:35:00;;;;;;;28.42;14.70;;;6.70;66.10;;;;;;6110145;23;20097;-91
2022/01/06 09:37:26;;;;;;;25.75;10.93;;;7.00;66.20;;;;;;6084466;23;20010;-91
2022/01/06 09:39:53;;;;;;;10.98;4.57;;;6.70;66.70;;;;;;6054835;23;20017;-91
2022/01/06 09:42:20;;;;;;;12.07;6.00;;;6.70;66.20;;;;;;6055426;23;20021;-91
2022/01/06 09:44:48;;;;;;;10.30;4.68;;;6.70;66.30;;;;;;6033107;23;20007;-91
2022/01/06 09:47:14;;;;;;;9.00;4.10;;;6.80;66.50;;;;;;6057881;23;20014;-91
2022/01/06 09:49:44;;;;;;;13.85;6.80;;;6.80;66.50;;;;;;6032531;23;20331;-90
2022/01/06 09:52:10;;;;;;;11.63;4.63;;;6.80;66.60;;;;;;6034460;23;20019;-90
2022/01/06 09:54:37;;;;;;;10.63;4.40;;;6.80;66.60;;;;;;6034891;23;20006;-91
2022/01/06 09:57:05;;;;;;;9.65;4.18;;;6.80;66.60;;;;;;6024774;23;20009;-91
2022/01/06 09:59:31;;;;;;;9.60;4.28;;;6.80;66.70;;;;;;6059194;23;20033;-91
2022/01/06 10:01:58;;;;;;;9.93;3.90;;;6.90;66.90;;;;;;6082869;23;20018;-91
2022/01/06 10:04:28;;;;;;;6.85;3.22;;;6.90;67.00;;;;;;6083114;23;20017;-90
2022/01/06 10:07:06;;;;;;;14.52;4.40;;;6.90;67.10;;;;;;6061338;23;20013;-91
2022/01/06 10:09:34;;;;;;;15.95;5.90;;;6.90;67.20;;;;;;6059719;23;20080;-91
2022/01/06 10:12:06;;;;;;;18.10;6.13;;;7.20;67.30;;;;;;6061953;23;20256;-92
2022/01/06 10:14:47;;;;;;;14.70;6.18;;;7.00;67.30;;;;;;6062137;23;20002;-91
2022/01/06 10:17:33;;;;;;;13.68;6.15;;;7.00;67.50;;;;;;6060325;23;20153;-91
2022/01/06 10:20:10;;;;;;;12.75;6.13;;;7.00;67.60;;;;;;6062269;23;20133;-91
2022/01/06 10:22:51;;;;;;;14.05;6.32;;;7.00;67.60;;;;;;6039324;23;20044;-91
2022/01/06 10:25:21;;;;;;;19.30;7.90;;;7.00;67.80;;;;;;6064738;23;20097;-91
2022/01/06 10:27:49;;;;;;;17.00;8.07;;;7.00;67.80;;;;;;6062464;23;20040;-91
2022/01/06 10:30:15;;;;;;;15.55;7.70;;;7.00;68.00;;;;;;6087012;23;20014;-91
2022/01/06 10:32:42;;;;;;;18.00;8.65;;;7.10;68.00;;;;;;6063625;23;20033;-90
2022/01/06 10:35:11;;;;;;;14.45;6.50;;;7.00;68.10;;;;;;6062629;23;20376;-92
2022/01/06 10:37:46;;;;;;;13.82;5.80;;;7.10;68.30;;;;;;6060213;23;20105;-91
2022/01/06 10:40:11;;;;;;;11.27;5.05;;;7.10;68.50;;;;;;6060850;23;20017;-91
2022/01/06 10:42:40;;;;;;;12.90;6.03;;;7.20;68.50;;;;;;6083899;23;20240;-91
2022/01/06 10:45:14;;;;;;;13.80;5.80;;;7.20;68.60;;;;;;6061097;23;20093;-91
2022/01/06 10:47:46;;;;;;;14.25;5.65;;;7.20;68.60;;;;;;6061183;23;20030;-91
2022/01/06 10:50:42;;;;;;;12.38;5.40;;;7.20;68.60;;;;;;6062425;23;20020;-90
2022/01/06 10:53:12;;;;;;;11.25;4.82;;;7.20;68.70;;;;;;6080910;23;20053;-91
2022/01/06 10:55:43;;;;;;;13.77;6.43;;;7.20;68.80;;;;;;6058043;23;20469;-91
2022/01/06 10:58:18;;;;;;;12.95;5.95;;;7.20;68.80;;;;;;6054312;23;20010;-91
2022/01/06 11:00:53;;;;;;;13.40;6.22;;;7.40;69.00;;;;;;6032227;23;20442;-91
2022/01/06 11:03:21;;;;;;;;;;;7.20;68.90;;;;;;6055416;23;20029;-91
2022/01/06 11:05:57;;;;;;;16.92;5.93;;;7.60;69.10;;;;;;6079231;23;20288;-91
2022/01/06 11:08:29;;;;;;;10.90;5.18;;;7.20;68.80;;;;;;6056543;23;20121;-91
2022/01/06 11:13:47;;;;;;;11.55;5.63;;;7.30;69.00;;;;;;6057971;23;20411;-92
2022/01/06 11:16:16;;;;;;;11.55;5.07;;;7.30;69.10;;;;;;6033510;23;20677;-91
2022/01/06 11:18:49;;;;;;;14.52;5.90;;;7.30;69.10;;;;;;6058054;23;20030;-91
2022/01/06 11:21:26;;;;;;;14.25;5.72;;;7.80;69.50;;;;;;6055995;23;20258;-90
2022/01/06 11:24:10;;;;;;;14.90;6.25;;;7.30;69.30;;;;;;6031659;23;20014;-90
2022/01/06 11:26:36;;;;;;;17.25;5.82;;;7.30;69.40;;;;;;6078173;23;20017;-91
2022/01/06 11:29:02;;;;;;;15.65;6.57;;;7.30;69.40;;;;;;6054456;23;20010;-90
2022/01/06 11:31:42;;;;;;;12.02;5.72;;;7.30;69.50;;;;;;6032154;23;20065;-91
2022/01/06 11:34:18;;;;;;;30.90;11.10;;;7.80;69.80;;;;;;6031685;23;20434;-91
2022/01/06 11:36:47;;;;;;;14.02;6.90;;;7.40;69.80;;;;;;6032347;23;20015;-91
2022/01/06 11:39:27;;;;;;;16.35;6.40;;;7.40;69.80;;;;;;6033028;23;20026;-91
2022/01/06 11:41:54;;;;;;;10.57;5.40;;;7.40;70.00;;;;;;6077541;23;20093;-91
2022/01/06 11:44:31;;;;;;;14.15;4.25;;;7.40;69.90;;;;;;6030811;23;20058;-91
2022/01/06 11:47:03;;;;;;;15.43;5.22;;;7.40;70.00;;;;;;6032374;23;20349;-91
2022/01/06 11:49:40;;;;;;;20.95;7.65;;;7.70;70.20;;;;;;6054960;23;20017;-90
2022/01/06 11:52:13;;;;;;;12.85;6.35;;;7.50;70.20;;;;;;6056512;23;20029;-91
2022/01/06 11:54:57;;;;;;;20.27;6.82;;;7.50;70.20;;;;;;6061984;23;20002;-91
2022/01/06 11:57:39;;;;;;;16.42;5.97;;;7.80;70.60;;;;;;6059044;23;20119;-91
2022/01/06 12:00:26;;;;;;;20.67;7.32;;;7.60;70.60;;;;;;6058661;23;20010;-92
2022/01/06 12:03:01;;;;;;;11.15;5.30;;;7.90;70.90;;;;;;6057622;23;20025;-92
2022/01/06 12:05:39;;;;;;;11.18;5.57;;;7.90;70.80;;;;;;6037619;23;20017;-91
2022/01/06 12:08:05;;;;;;;16.60;4.70;;;7.80;70.80;;;;;;6080552;23;20022;-92
2022/01/06 12:10:43;;;;;;;27.65;8.77;;;8.20;71.20;;;;;;6083504;23;20006;-90
2022/01/06 12:13:09;;;;;;;17.25;7.95;;;7.60;70.90;;;;;;6059312;23;20010;-91
2022/01/06 12:15:52;;;;;;;18.23;9.02;;;7.70;71.00;;;;;;6035555;23;20081;-91
2022/01/06 12:18:27;;;;;;;14.98;7.50;;;7.70;71.20;;;;;;6058104;23;20096;-91
2022/01/06 12:20:56;;;;;;;9.90;4.18;;;7.70;71.20;;;;;;6059361;23;20017;-91
2022/01/06 12:23:22;;;;;;;11.07;4.00;;;7.70;71.10;;;;;;6059048;23;20018;-91
2022/01/06 12:26:04;;;;;;;13.95;4.00;;;8.10;71.40;;;;;;6057848;23;20010;-91
2022/01/06 12:28:32;;;;;;;11.95;4.60;;;7.80;71.40;;;;;;6034055;23;20385;-91
2022/01/06 12:31:04;;;;;;;6.07;3.55;;;7.80;71.40;;;;;;6058683;23;20010;-91
2022/01/06 12:33:31;;;;;;;10.45;3.30;;;8.20;71.60;;;;;;6058555;23;20386;-91
2022/01/06 12:35:58;;;;;;;8.57;4.40;;;7.80;71.50;;;;;;6059453;23;20017;-91
2022/01/06 12:38:31;;;;;;;10.13;4.13;;;7.80;71.50;;;;;;6058679;23;20041;-91
2022/01/06 12:41:00;;;;;;;11.13;3.33;;;7.80;71.60;;;;;;6059487;23;20073;-91
2022/01/06 12:43:32;;;;;;;20.67;3.70;;;7.80;71.50;;;;;;6060039;23;20018;-91
2022/01/06 12:46:18;;;;;;;9.07;4.10;;;7.90;71.60;;;;;;6060333;23;20036;-91
2022/01/06 12:48:53;;;;;;;11.80;4.35;;;8.50;72.10;;;;;;6057060;23;20018;-91
2022/01/06 12:51:20;;;;;;;8.00;3.40;;;8.50;72.10;;;;;;6084499;23;20038;-91
2022/01/06 12:53:49;;;;;;;11.38;3.42;;;7.90;71.70;;;;;;6108606;23;20045;-91
2022/01/06 12:56:37;;;;;;;12.70;2.88;;;8.00;71.80;;;;;;6060178;23;20140;-91
2022/01/06 12:59:17;;;;;;;9.18;2.83;;;8.00;71.90;;;;;;6062395;23;20009;-91
2022/01/06 13:01:44;;;;;;;11.68;3.45;;;8.00;71.80;;;;;;6059414;23;20076;-92